Time;durP1;ratioP1;P1;durP2;ratioP2;P2;SDS_P1;SDS_P2;PMS_P1;PMS_P2;Temp;Humidity;BMP_temperature;BMP_pressure;BME280_temperature;BME280_humidity;BME280_pressure;Samples;Min_cycle;Max_cycle;Signal;HPM_P1;HPM_P2
2024/01/30 00:00:15;;;;;;;9.17;7.10;;;3.00;99.90;;;;;;5034050;28;20274;-93
2024/01/30 00:02:43;;;;;;;11.53;7.10;;;3.00;99.90;;;;;;5034182;28;20524;-93
2024/01/30 00:05:08;;;;;;;12.30;7.40;;;3.10;99.90;;;;;;5035744;28;20190;-92
2024/01/30 00:07:34;;;;;;;9.90;6.93;;;3.00;99.90;;;;;;5034224;28;20215;-93
2024/01/30 00:10:00;;;;;;;10.00;7.33;;;3.00;99.90;;;;;;5034443;28;20182;-93
2024/01/30 00:12:26;;;;;;;13.47;7.33;;;2.90;99.90;;;;;;5034002;28;20190;-93
2024/01/30 00:17:27;;;;;;;11.63;6.80;;;2.90;99.90;;;;;;5156664;22;20240;-86
2024/01/30 00:19:53;;;;;;;8.53;6.57;;;2.90;99.90;;;;;;4956002;28;20200;-86
2024/01/30 00:22:19;;;;;;;9.63;6.70;;;3.00;99.90;;;;;;4955610;28;20193;-89
2024/01/30 00:24:44;;;;;;;11.53;7.53;;;2.90;99.90;;;;;;4955941;28;20553;-86
2024/01/30 00:27:10;;;;;;;10.27;7.07;;;2.90;99.90;;;;;;4957020;28;20208;-87
2024/01/30 00:29:36;;;;;;;8.83;7.00;;;2.90;99.90;;;;;;4987887;28;20275;-85
2024/01/30 00:32:02;;;;;;;9.53;6.97;;;2.90;99.90;;;;;;4960915;28;20200;-86
2024/01/30 00:34:28;;;;;;;10.30;6.63;;;2.90;99.90;;;;;;4957114;28;20189;-86
2024/01/30 00:36:53;;;;;;;12.10;7.23;;;2.90;99.90;;;;;;4955483;28;20204;-87
2024/01/30 00:39:19;;;;;;;8.57;6.30;;;2.90;99.90;;;;;;4955692;28;20189;-86
2024/01/30 00:41:45;;;;;;;11.50;6.87;;;2.90;99.90;;;;;;4955589;28;20193;-85
2024/01/30 00:44:11;;;;;;;9.80;7.37;;;2.90;99.90;;;;;;4955862;28;20188;-86
2024/01/30 00:46:37;;;;;;;9.70;7.07;;;2.80;99.90;;;;;;4963148;28;20212;-86
2024/01/30 00:49:02;;;;;;;12.13;6.70;;;2.90;99.90;;;;;;4961370;28;20588;-86
2024/01/30 00:51:29;;;;;;;9.70;6.70;;;2.80;99.90;;;;;;4955179;28;20201;-85
2024/01/30 00:53:55;;;;;;;9.20;6.47;;;2.80;99.90;;;;;;4956652;28;20687;-85
2024/01/30 00:56:21;;;;;;;11.20;6.93;;;2.80;99.90;;;;;;4987829;28;20292;-86
2024/01/30 00:58:47;;;;;;;10.37;6.77;;;2.80;99.90;;;;;;4955399;28;20683;-87
2024/01/30 01:01:13;;;;;;;10.23;6.87;;;2.80;99.90;;;;;;4955193;28;20224;-86
2024/01/30 01:03:40;;;;;;;9.97;6.77;;;2.80;99.90;;;;;;4987279;28;20247;-88
2024/01/30 01:06:06;;;;;;;12.13;7.10;;;2.80;99.90;;;;;;4962367;28;20213;-89
2024/01/30 01:08:32;;;;;;;10.27;6.80;;;2.80;99.90;;;;;;4957064;28;20189;-87
2024/01/30 01:10:59;;;;;;;9.83;6.57;;;2.80;99.90;;;;;;4987616;28;20602;-88
2024/01/30 01:13:24;;;;;;;11.03;6.83;;;2.80;99.90;;;;;;4954658;28;20232;-86
2024/01/30 01:15:50;;;;;;;9.10;6.70;;;2.70;99.90;;;;;;4987944;28;20256;-91
2024/01/30 01:18:16;;;;;;;9.30;6.93;;;2.70;99.90;;;;;;4975168;28;20200;-86
2024/01/30 01:20:42;;;;;;;8.90;7.00;;;2.70;99.90;;;;;;4987507;28;20260;-89
2024/01/30 01:23:07;;;;;;;13.53;6.90;;;2.70;99.90;;;;;;4956182;28;20189;-89
2024/01/30 01:25:33;;;;;;;10.03;6.87;;;2.70;99.90;;;;;;4987061;28;20193;-87
2024/01/30 01:28:01;;;;;;;11.37;6.80;;;2.70;99.90;;;;;;4964037;28;20190;-90
2024/01/30 01:30:28;;;;;;;10.70;7.00;;;2.70;99.90;;;;;;4955042;28;20193;-88
2024/01/30 01:32:57;;;;;;;8.87;6.53;;;2.60;99.90;;;;;;4987325;28;20189;-86
2024/01/30 01:35:27;;;;;;;9.03;6.73;;;2.60;99.90;;;;;;4955074;28;20193;-85
2024/01/30 01:37:54;;;;;;;8.23;6.00;;;2.50;99.90;;;;;;4955074;28;20596;-92
2024/01/30 01:40:29;;;;;;;10.27;6.77;;;2.50;99.90;;;;;;4987382;28;20244;-87
2024/01/30 01:42:56;;;;;;;11.20;7.17;;;2.60;99.90;;;;;;4963046;28;20185;-87
2024/01/30 01:45:22;;;;;;;11.87;7.43;;;2.60;99.90;;;;;;4971979;28;20199;-88
2024/01/30 01:47:51;;;;;;;10.30;6.87;;;2.50;99.90;;;;;;4962235;28;20244;-86
2024/01/30 01:50:21;;;;;;;10.90;7.23;;;2.60;99.90;;;;;;4986946;28;20572;-84
2024/01/30 01:52:48;;;;;;;9.40;6.50;;;2.60;99.90;;;;;;4987160;28;20512;-85
2024/01/30 01:55:18;;;;;;;9.97;7.00;;;2.60;99.90;;;;;;4954731;28;20193;-90
2024/01/30 01:57:44;;;;;;;10.33;6.77;;;2.60;99.90;;;;;;4962577;28;20193;-87
2024/01/30 02:00:11;;;;;;;9.10;6.27;;;2.60;99.90;;;;;;4987241;28;20308;-86
2024/01/30 02:02:39;;;;;;;11.07;6.83;;;2.70;99.90;;;;;;4954403;28;20231;-90
2024/01/30 02:05:05;;;;;;;11.67;6.63;;;2.70;99.90;;;;;;4954787;28;20199;-88
2024/01/30 02:07:31;;;;;;;9.67;6.43;;;2.80;99.90;;;;;;4962620;28;20312;-90
2024/01/30 02:09:57;;;;;;;9.67;6.77;;;2.80;99.90;;;;;;4955763;28;20259;-88
2024/01/30 02:12:23;;;;;;;10.03;6.70;;;2.80;99.90;;;;;;4954482;28;20216;-88
2024/01/30 02:14:49;;;;;;;9.93;6.57;;;2.80;99.90;;;;;;4961591;28;20185;-87
2024/01/30 02:17:16;;;;;;;9.53;7.13;;;2.80;99.90;;;;;;4959592;28;20244;-90
2024/01/30 02:19:41;;;;;;;11.77;7.40;;;2.70;99.90;;;;;;4954595;28;20189;-91
2024/01/30 02:22:08;;;;;;;11.37;7.07;;;2.70;99.90;;;;;;4955976;28;20181;-93
2024/01/30 02:24:34;;;;;;;10.70;6.87;;;2.80;99.90;;;;;;4955870;28;20358;-92
2024/01/30 02:27:00;;;;;;;10.53;7.03;;;2.80;99.90;;;;;;4957913;28;20303;-87
2024/01/30 02:29:26;;;;;;;10.03;7.03;;;2.80;99.90;;;;;;4959412;28;20189;-92
2024/01/30 02:31:52;;;;;;;10.40;7.13;;;2.90;99.90;;;;;;4967489;28;20630;-86
2024/01/30 02:34:19;;;;;;;10.50;7.20;;;2.90;99.90;;;;;;4959554;28;20293;-88
2024/01/30 02:36:45;;;;;;;8.80;6.77;;;3.00;99.90;;;;;;4959624;28;20635;-91
2024/01/30 02:39:11;;;;;;;9.90;6.80;;;3.00;99.90;;;;;;4958596;28;20640;-88
2024/01/30 02:41:37;;;;;;;12.03;7.33;;;3.10;99.90;;;;;;4990605;28;20279;-86
2024/01/30 02:44:04;;;;;;;11.17;7.37;;;3.10;99.90;;;;;;4958577;28;20212;-91
2024/01/30 02:46:29;;;;;;;13.23;7.67;;;3.10;99.90;;;;;;4992519;28;20212;-92
2024/01/30 02:48:55;;;;;;;13.07;7.30;;;3.10;99.90;;;;;;4958199;28;20200;-92
2024/01/30 02:51:21;;;;;;;10.53;6.53;;;3.20;99.90;;;;;;4958178;28;20185;-91
2024/01/30 02:53:47;;;;;;;10.07;6.90;;;3.20;99.90;;;;;;4959209;28;20269;-93
2024/01/30 02:56:13;;;;;;;9.33;6.80;;;3.10;99.90;;;;;;4959204;28;20620;-91
2024/01/30 02:58:42;;;;;;;10.70;6.70;;;3.00;99.90;;;;;;4959228;28;20616;-91
2024/01/30 03:01:08;;;;;;;11.10;6.83;;;2.90;99.90;;;;;;4957696;28;20540;-93
2024/01/30 03:03:36;;;;;;;11.10;6.53;;;2.90;99.90;;;;;;4965911;28;20189;-89
2024/01/30 03:06:02;;;;;;;10.70;6.73;;;2.80;99.90;;;;;;4957995;28;20225;-89
2024/01/30 03:08:28;;;;;;;12.47;6.60;;;2.70;99.90;;;;;;4958427;28;20270;-85
2024/01/30 03:10:54;;;;;;;10.13;6.90;;;2.80;99.90;;;;;;4957524;28;20193;-85
2024/01/30 03:13:23;;;;;;;10.77;7.03;;;2.80;99.90;;;;;;4957381;28;20193;-85
2024/01/30 03:15:49;;;;;;;9.07;6.93;;;2.80;99.90;;;;;;4990401;28;20645;-86
2024/01/30 03:18:14;;;;;;;16.43;7.43;;;2.80;99.90;;;;;;4977386;28;20197;-88
2024/01/30 03:20:40;;;;;;;9.83;6.97;;;2.80;99.90;;;;;;4966408;28;20647;-85
2024/01/30 03:23:06;;;;;;;9.87;6.77;;;2.80;99.90;;;;;;4958247;28;20269;-86
2024/01/30 03:25:32;;;;;;;11.00;6.93;;;2.80;99.90;;;;;;4989198;28;20283;-85
2024/01/30 03:27:57;;;;;;;8.90;7.20;;;2.80;99.90;;;;;;4958204;28;20232;-85
2024/01/30 03:30:23;;;;;;;12.63;7.43;;;2.80;99.90;;;;;;4957070;28;20197;-85
2024/01/30 03:32:50;;;;;;;12.13;7.20;;;2.80;99.90;;;;;;4958027;28;20301;-87
2024/01/30 03:35:16;;;;;;;14.87;6.93;;;2.80;99.90;;;;;;4958203;28;20612;-85
2024/01/30 03:37:41;;;;;;;8.40;6.47;;;2.70;99.90;;;;;;4955797;28;20196;-85
2024/01/30 03:40:08;;;;;;;9.80;6.63;;;2.60;99.90;;;;;;4988770;28;20271;-85
2024/01/30 03:42:33;;;;;;;10.00;6.87;;;2.60;99.90;;;;;;4998695;28;20200;-84
2024/01/30 03:44:59;;;;;;;8.97;6.77;;;2.60;99.90;;;;;;4958052;28;20187;-87
2024/01/30 03:47:25;;;;;;;8.53;6.30;;;2.60;99.90;;;;;;4988401;28;20220;-85
2024/01/30 03:49:51;;;;;;;9.73;6.77;;;2.40;99.90;;;;;;4956133;28;20185;-85
2024/01/30 03:52:17;;;;;;;9.43;6.57;;;2.50;99.90;;;;;;4956532;28;20599;-85
2024/01/30 03:54:43;;;;;;;12.00;6.83;;;2.50;99.90;;;;;;4962993;28;20219;-86
2024/01/30 03:57:08;;;;;;;8.97;7.10;;;2.50;99.90;;;;;;4966910;28;20224;-86
2024/01/30 03:59:34;;;;;;;9.30;7.13;;;2.50;99.90;;;;;;4964279;28;20192;-88
2024/01/30 04:02:00;;;;;;;11.40;7.37;;;2.50;99.90;;;;;;4988447;28;20552;-86
2024/01/30 04:04:26;;;;;;;10.80;6.90;;;2.50;99.90;;;;;;4957888;28;20217;-88
2024/01/30 04:06:51;;;;;;;10.43;7.27;;;2.60;99.90;;;;;;4964611;28;20216;-85
2024/01/30 04:09:17;;;;;;;11.03;6.90;;;2.60;99.90;;;;;;4988657;28;20188;-86
2024/01/30 04:11:43;;;;;;;11.47;6.73;;;2.60;99.90;;;;;;4990687;28;20227;-85
2024/01/30 04:14:09;;;;;;;8.60;7.03;;;2.50;99.90;;;;;;4968772;28;20533;-86
2024/01/30 04:16:36;;;;;;;10.70;7.17;;;2.50;99.90;;;;;;4963916;28;20239;-87
2024/01/30 04:19:01;;;;;;;9.60;7.20;;;2.50;99.90;;;;;;4956040;28;20193;-86
2024/01/30 04:21:27;;;;;;;13.33;7.80;;;2.60;99.90;;;;;;4955914;28;20280;-84
2024/01/30 04:23:53;;;;;;;11.47;7.20;;;2.60;99.90;;;;;;4955912;28;20229;-85
2024/01/30 04:26:19;;;;;;;12.33;7.53;;;2.60;99.90;;;;;;4956111;28;20217;-88
2024/01/30 04:28:45;;;;;;;12.47;7.50;;;2.60;99.90;;;;;;4955761;28;20544;-86
2024/01/30 04:31:11;;;;;;;8.90;6.43;;;2.50;99.90;;;;;;4955864;28;20224;-85
2024/01/30 04:33:37;;;;;;;7.73;6.30;;;2.50;99.90;;;;;;4955552;28;20193;-85
2024/01/30 04:36:03;;;;;;;10.53;7.20;;;2.40;99.90;;;;;;4956929;28;20192;-87
2024/01/30 04:38:29;;;;;;;9.50;6.17;;;2.40;99.90;;;;;;4957009;28;20197;-90
2024/01/30 04:40:55;;;;;;;9.13;6.60;;;2.40;99.90;;;;;;4956981;28;20643;-86
2024/01/30 04:43:21;;;;;;;10.37;7.43;;;2.50;99.90;;;;;;4955709;28;20193;-86
2024/01/30 04:45:47;;;;;;;12.47;7.47;;;2.50;99.90;;;;;;4988631;28;20287;-86
2024/01/30 04:48:13;;;;;;;9.90;7.60;;;2.50;99.90;;;;;;4966740;28;20545;-85
2024/01/30 04:50:39;;;;;;;10.77;7.50;;;2.50;99.90;;;;;;4957308;28;20189;-88
2024/01/30 04:53:05;;;;;;;11.37;7.20;;;2.50;99.90;;;;;;4956611;28;20201;-86
2024/01/30 04:55:31;;;;;;;13.03;7.00;;;2.50;99.90;;;;;;4954989;28;20192;-91
2024/01/30 04:57:56;;;;;;;10.83;7.53;;;2.60;99.90;;;;;;4962792;28;20280;-87
2024/01/30 05:00:22;;;;;;;11.47;7.73;;;2.60;99.90;;;;;;4963258;28;20212;-85
2024/01/30 05:02:48;;;;;;;9.70;7.57;;;2.50;99.90;;;;;;4955070;28;20215;-87
2024/01/30 05:05:14;;;;;;;11.73;8.07;;;2.50;99.90;;;;;;4954742;28;20252;-87
2024/01/30 05:07:41;;;;;;;10.00;7.23;;;2.50;99.90;;;;;;4953736;28;20224;-91
2024/01/30 05:10:08;;;;;;;10.47;7.33;;;2.50;99.90;;;;;;4954935;28;20531;-85
2024/01/30 05:12:34;;;;;;;11.97;7.30;;;2.50;99.90;;;;;;4962935;28;20237;-88
2024/01/30 05:15:00;;;;;;;12.47;8.13;;;2.50;99.90;;;;;;4987444;28;20224;-92
2024/01/30 05:17:25;;;;;;;12.07;8.00;;;2.50;99.90;;;;;;4967992;28;20236;-85
2024/01/30 05:19:51;;;;;;;9.83;7.40;;;2.50;99.90;;;;;;4990182;28;20188;-90
2024/01/30 05:22:18;;;;;;;11.63;7.47;;;2.50;99.90;;;;;;4958946;28;20193;-86
2024/01/30 05:24:44;;;;;;;10.13;7.53;;;2.60;99.90;;;;;;4987016;28;20202;-86
2024/01/30 05:27:10;;;;;;;13.37;7.27;;;2.60;99.90;;;;;;4955954;28;20244;-91
2024/01/30 05:29:36;;;;;;;11.80;8.07;;;2.60;99.90;;;;;;4956082;28;20192;-85
2024/01/30 05:32:03;;;;;;;12.27;7.33;;;2.70;99.90;;;;;;4954713;28;20652;-86
2024/01/30 05:34:28;;;;;;;13.97;7.93;;;2.70;99.90;;;;;;4954738;28;20208;-85
2024/01/30 05:36:54;;;;;;;13.87;7.83;;;2.80;99.90;;;;;;4955950;28;20185;-90
2024/01/30 05:39:20;;;;;;;11.17;7.37;;;2.90;99.90;;;;;;4991206;28;20624;-88
2024/01/30 05:41:46;;;;;;;12.07;7.07;;;3.10;99.90;;;;;;4986273;28;20200;-85
2024/01/30 05:44:12;;;;;;;10.00;6.67;;;3.10;99.90;;;;;;4954240;28;20225;-86
2024/01/30 05:46:38;;;;;;;9.37;7.40;;;3.00;99.90;;;;;;4960686;28;20549;-86
2024/01/30 05:49:04;;;;;;;9.10;6.50;;;3.00;99.90;;;;;;4955242;28;20181;-88
2024/01/30 05:51:29;;;;;;;10.27;7.03;;;3.00;99.90;;;;;;4986866;28;20208;-91
2024/01/30 05:53:55;;;;;;;9.20;6.97;;;2.90;99.90;;;;;;4953716;28;20627;-87
2024/01/30 05:56:22;;;;;;;11.30;6.83;;;2.80;99.90;;;;;;4986557;28;20192;-87
2024/01/30 05:58:47;;;;;;;11.57;6.70;;;2.70;99.90;;;;;;4985505;28;20191;-88
2024/01/30 06:01:13;;;;;;;8.23;6.50;;;2.60;99.90;;;;;;4954506;28;20272;-87
2024/01/30 06:03:39;;;;;;;9.93;6.90;;;2.60;99.90;;;;;;4956147;28;20188;-88
2024/01/30 06:06:05;;;;;;;12.37;6.93;;;2.60;99.90;;;;;;4961653;28;20271;-90
2024/01/30 06:08:31;;;;;;;12.97;6.90;;;2.50;99.90;;;;;;4954503;28;20193;-87
2024/01/30 06:10:56;;;;;;;9.70;6.93;;;2.60;99.90;;;;;;4962084;28;20191;-91
2024/01/30 06:13:22;;;;;;;10.57;7.03;;;2.50;99.90;;;;;;4961624;28;20189;-93
2024/01/30 06:15:48;;;;;;;14.20;7.83;;;2.60;99.90;;;;;;4970800;28;20233;-87
2024/01/30 06:18:14;;;;;;;11.90;7.73;;;2.60;99.90;;;;;;4957872;28;20200;-88
2024/01/30 06:20:39;;;;;;;11.87;7.53;;;2.70;99.90;;;;;;4960463;28;20699;-92
2024/01/30 06:23:05;;;;;;;10.40;7.93;;;2.80;99.90;;;;;;4958328;28;20212;-94
2024/01/30 06:25:31;;;;;;;14.77;8.50;;;2.90;99.90;;;;;;4963914;28;20188;-90
2024/01/30 06:27:57;;;;;;;14.13;8.30;;;2.90;99.90;;;;;;4959237;28;20311;-91
2024/01/30 06:30:22;;;;;;;10.77;7.63;;;2.90;99.90;;;;;;4984853;28;20189;-95
2024/01/30 06:32:48;;;;;;;13.10;7.77;;;2.90;99.90;;;;;;4952088;28;20240;-87
2024/01/30 06:35:14;;;;;;;10.83;7.77;;;2.90;99.90;;;;;;4986295;28;20201;-87
2024/01/30 06:37:40;;;;;;;11.33;7.80;;;3.00;99.90;;;;;;4954407;28;20193;-88
2024/01/30 06:40:06;;;;;;;11.53;8.00;;;3.00;99.90;;;;;;4963335;28;20185;-88
2024/01/30 06:42:32;;;;;;;10.37;7.17;;;2.90;99.90;;;;;;4954058;28;20266;-87
2024/01/30 06:44:58;;;;;;;10.40;7.43;;;3.00;99.90;;;;;;4954168;28;20198;-87
2024/01/30 06:47:24;;;;;;;10.43;7.37;;;3.00;99.90;;;;;;4958962;28;20564;-86
2024/01/30 06:49:49;;;;;;;12.47;8.20;;;3.00;99.90;;;;;;4961707;28;20200;-91
2024/01/30 06:52:15;;;;;;;16.07;7.87;;;3.00;99.90;;;;;;4969122;28;20192;-93
2024/01/30 06:54:41;;;;;;;12.83;8.20;;;3.00;99.90;;;;;;4955014;28;20193;-90
2024/01/30 06:57:11;;;;;;;15.27;8.37;;;3.00;99.90;;;;;;4953817;28;20192;-93
2024/01/30 06:59:43;;;;;;;11.87;8.33;;;3.10;99.90;;;;;;4953884;28;20185;-87
2024/01/30 07:02:09;;;;;;;13.43;7.77;;;3.10;99.90;;;;;;4953528;28;20195;-88
2024/01/30 07:04:37;;;;;;;12.37;7.70;;;3.00;99.90;;;;;;4953969;28;20193;-90
2024/01/30 07:07:04;;;;;;;13.77;8.17;;;3.00;99.90;;;;;;4961814;28;20676;-94
2024/01/30 07:09:31;;;;;;;11.57;7.83;;;2.90;99.90;;;;;;4962549;28;20185;-93
2024/01/30 07:11:58;;;;;;;11.63;7.90;;;2.90;99.90;;;;;;4962378;28;20197;-90
2024/01/30 07:14:25;;;;;;;12.80;7.87;;;2.80;99.90;;;;;;4965376;28;20184;-87
2024/01/30 07:16:51;;;;;;;11.10;7.90;;;2.80;99.90;;;;;;4972127;28;20299;-89
2024/01/30 07:19:16;;;;;;;11.57;8.20;;;2.80;99.90;;;;;;4964165;28;20241;-90
2024/01/30 07:21:42;;;;;;;13.60;8.00;;;2.80;99.90;;;;;;4965882;28;20201;-89
2024/01/30 07:24:08;;;;;;;12.47;7.73;;;2.80;99.90;;;;;;4957074;28;20232;-88
2024/01/30 07:26:35;;;;;;;12.53;7.93;;;2.80;99.90;;;;;;4956620;28;20236;-86
2024/01/30 07:29:01;;;;;;;12.30;7.63;;;2.80;99.90;;;;;;4969207;28;20250;-87
2024/01/30 07:31:27;;;;;;;13.37;7.77;;;2.80;99.90;;;;;;4959293;28;20189;-90
2024/01/30 07:33:54;;;;;;;14.87;8.07;;;2.90;99.90;;;;;;4956720;28;20203;-94
2024/01/30 07:36:20;;;;;;;14.03;7.77;;;3.00;99.90;;;;;;4964815;28;20514;-86
2024/01/30 07:38:46;;;;;;;11.83;7.67;;;3.00;99.90;;;;;;4964509;28;20185;-86
2024/01/30 07:41:11;;;;;;;11.67;7.57;;;3.10;99.90;;;;;;4964583;28;20189;-86
2024/01/30 07:43:38;;;;;;;11.63;7.53;;;3.20;99.90;;;;;;4965497;28;20607;-91
2024/01/30 07:46:06;;;;;;;14.57;8.00;;;3.30;99.90;;;;;;4976654;28;20196;-87
2024/01/30 07:48:33;;;;;;;12.90;7.60;;;3.30;99.90;;;;;;4966256;28;20221;-91
2024/01/30 07:50:59;;;;;;;14.40;7.90;;;3.40;99.90;;;;;;4962850;28;20185;-92
2024/01/30 07:53:25;;;;;;;10.67;7.40;;;3.50;99.90;;;;;;4959992;28;20522;-87
2024/01/30 07:55:51;;;;;;;11.87;7.83;;;3.50;99.90;;;;;;4956685;28;20628;-86
2024/01/30 07:58:17;;;;;;;12.07;7.77;;;3.60;99.90;;;;;;4957349;28;20189;-85
2024/01/30 08:00:43;;;;;;;13.13;7.63;;;3.60;99.90;;;;;;4974629;28;20575;-86
2024/01/30 08:03:09;;;;;;;15.80;7.80;;;3.60;99.90;;;;;;4977437;28;20278;-86
2024/01/30 08:05:35;;;;;;;13.70;8.13;;;3.70;99.90;;;;;;4956069;28;20200;-86
2024/01/30 08:08:00;;;;;;;12.17;7.73;;;3.70;99.90;;;;;;4965301;28;20215;-86
2024/01/30 08:10:26;;;;;;;11.47;7.73;;;3.60;99.90;;;;;;4955832;28;20252;-85
2024/01/30 08:12:52;;;;;;;11.20;7.83;;;3.60;99.90;;;;;;4988415;28;20244;-85
2024/01/30 08:15:18;;;;;;;11.90;7.30;;;3.60;99.90;;;;;;4955062;28;20209;-85
2024/01/30 08:17:44;;;;;;;14.70;7.80;;;3.60;99.90;;;;;;4965608;28;20291;-86
2024/01/30 08:20:11;;;;;;;12.07;7.77;;;3.60;99.90;;;;;;4967208;28;20199;-86
2024/01/30 08:22:40;;;;;;;11.40;8.60;;;3.60;99.90;;;;;;4965218;28;20192;-85
2024/01/30 08:25:06;;;;;;;13.37;8.57;;;3.70;99.90;;;;;;4956189;28;20271;-84
2024/01/30 08:27:32;;;;;;;12.40;7.93;;;3.80;99.90;;;;;;4987018;28;20217;-86
2024/01/30 08:29:58;;;;;;;13.03;7.63;;;3.90;99.90;;;;;;4956416;28;20232;-85
2024/01/30 08:32:24;;;;;;;15.03;8.20;;;3.90;99.90;;;;;;4955199;28;20189;-86
2024/01/30 08:34:50;;;;;;;10.43;7.93;;;4.00;99.90;;;;;;4963719;28;20695;-86
2024/01/30 08:37:16;;;;;;;10.47;7.27;;;4.10;99.90;;;;;;4955578;28;20200;-86
2024/01/30 08:39:43;;;;;;;10.50;7.50;;;4.20;99.90;;;;;;4955233;28;20193;-85
2024/01/30 08:42:09;;;;;;;12.10;7.83;;;4.20;99.90;;;;;;4955222;28;20204;-84
2024/01/30 08:44:35;;;;;;;10.77;8.03;;;4.20;99.90;;;;;;4989046;28;20201;-86
2024/01/30 08:47:01;;;;;;;13.87;8.23;;;4.20;99.90;;;;;;4968469;28;20208;-86
2024/01/30 08:49:27;;;;;;;13.70;8.23;;;4.20;99.90;;;;;;4955382;28;20186;-86
2024/01/30 08:51:53;;;;;;;13.10;8.90;;;4.20;99.90;;;;;;4956542;28;20193;-85
2024/01/30 08:54:19;;;;;;;11.00;8.33;;;4.30;99.90;;;;;;4987062;28;20195;-85
2024/01/30 08:56:45;;;;;;;14.13;8.43;;;4.30;99.90;;;;;;4965682;28;20283;-88
2024/01/30 08:59:11;;;;;;;13.60;8.63;;;4.40;99.90;;;;;;4960623;28;20231;-86
2024/01/30 09:01:37;;;;;;;13.77;8.30;;;4.40;99.90;;;;;;4956184;28;20231;-85
2024/01/30 09:04:02;;;;;;;15.47;8.10;;;4.50;99.90;;;;;;4964075;28;20268;-85
2024/01/30 09:06:28;;;;;;;11.10;8.10;;;4.60;99.90;;;;;;4955985;28;20296;-85
2024/01/30 09:08:54;;;;;;;12.37;8.17;;;4.70;99.90;;;;;;4987083;28;20595;-85
2024/01/30 09:11:20;;;;;;;11.23;7.77;;;4.80;99.90;;;;;;4955788;28;20184;-86
2024/01/30 09:13:46;;;;;;;16.63;8.33;;;4.90;99.90;;;;;;4987030;28;20196;-84
2024/01/30 09:16:12;;;;;;;10.63;7.40;;;5.00;99.90;;;;;;4959455;28;20679;-85
2024/01/30 09:18:38;;;;;;;10.97;7.90;;;5.10;99.90;;;;;;4955790;28;20201;-85
2024/01/30 09:21:04;;;;;;;12.33;7.60;;;5.10;99.90;;;;;;4986899;28;20528;-85
2024/01/30 09:23:30;;;;;;;11.93;7.50;;;5.20;99.90;;;;;;4955636;28;20181;-86
2024/01/30 09:25:56;;;;;;;12.53;8.00;;;5.20;99.90;;;;;;4986640;28;20203;-85
2024/01/30 09:28:22;;;;;;;10.70;7.50;;;5.30;99.90;;;;;;4963274;28;20262;-85
2024/01/30 09:30:47;;;;;;;11.77;7.87;;;5.30;99.90;;;;;;4962688;28;20633;-85
2024/01/30 09:33:13;;;;;;;15.67;8.80;;;5.30;99.90;;;;;;4954358;28;20220;-85
2024/01/30 09:35:39;;;;;;;13.67;8.50;;;5.30;99.90;;;;;;4986097;28;20659;-84
2024/01/30 09:38:05;;;;;;;12.67;8.70;;;5.30;99.90;;;;;;4955507;28;20623;-86
2024/01/30 09:40:30;;;;;;;11.63;8.30;;;5.40;99.90;;;;;;4955329;28;20678;-85
2024/01/30 09:42:59;;;;;;;13.73;9.30;;;5.40;99.90;;;;;;4954437;28;20528;-85
2024/01/30 09:45:26;;;;;;;12.53;9.00;;;5.40;99.90;;;;;;4954365;28;20232;-87
2024/01/30 09:47:53;;;;;;;14.23;9.10;;;5.50;99.90;;;;;;4959715;28;20272;-85
2024/01/30 09:50:19;;;;;;;13.43;9.20;;;5.60;99.90;;;;;;4955589;28;20192;-85
2024/01/30 09:52:47;;;;;;;13.37;9.47;;;5.60;99.90;;;;;;4986294;28;20204;-86
2024/01/30 09:55:13;;;;;;;14.10;9.10;;;5.70;99.90;;;;;;4960546;28;20568;-85
2024/01/30 09:57:39;;;;;;;18.33;9.27;;;5.70;99.90;;;;;;4957381;28;20540;-84
2024/01/30 10:00:09;;;;;;;15.17;9.47;;;5.90;99.90;;;;;;4960169;28;20192;-87
2024/01/30 10:02:36;;;;;;;16.37;8.97;;;6.00;99.90;;;;;;4969802;28;20500;-86
2024/01/30 10:05:02;;;;;;;16.87;9.07;;;6.10;99.90;;;;;;4986542;28;20276;-85
2024/01/30 10:07:28;;;;;;;16.37;8.90;;;6.20;99.90;;;;;;4962979;28;20268;-84
2024/01/30 10:09:56;;;;;;;15.33;8.60;;;6.30;99.90;;;;;;4986414;28;20196;-84
2024/01/30 10:12:31;;;;;;;16.50;8.83;;;6.40;99.90;;;;;;4962982;28;20184;-85
2024/01/30 10:14:57;;;;;;;12.30;8.50;;;6.50;99.90;;;;;;4962443;28;20232;-85
2024/01/30 10:17:25;;;;;;;11.50;8.60;;;6.60;99.90;;;;;;4985379;28;20276;-84
2024/01/30 10:19:52;;;;;;;11.77;9.03;;;6.70;99.90;;;;;;4973172;28;20258;-85
2024/01/30 10:22:18;;;;;;;12.97;8.80;;;6.80;99.90;;;;;;4958064;28;20632;-84
2024/01/30 10:24:45;;;;;;;17.57;9.13;;;6.90;99.90;;;;;;4953917;28;20248;-85
2024/01/30 10:27:11;;;;;;;13.27;8.60;;;7.00;99.90;;;;;;4986190;28;20228;-86
2024/01/30 10:29:37;;;;;;;12.47;7.47;;;7.10;99.90;;;;;;4955090;28;20181;-85
2024/01/30 10:32:05;;;;;;;13.90;8.30;;;7.10;99.90;;;;;;4962058;28;20208;-85
2024/01/30 10:34:32;;;;;;;13.50;8.33;;;7.20;99.90;;;;;;4953423;28;20575;-85
2024/01/30 10:37:17;;;;;;;12.63;8.27;;;7.20;99.90;;;;;;4961781;28;20193;-85
2024/01/30 10:39:44;;;;;;;12.13;7.80;;;7.30;99.90;;;;;;4965333;28;20177;-85
2024/01/30 10:42:20;;;;;;;12.10;7.53;;;7.40;99.90;;;;;;4959074;28;20233;-86
2024/01/30 10:45:13;;;;;;;12.33;7.93;;;7.50;99.90;;;;;;4957825;28;20220;-84
2024/01/30 10:47:41;;;;;;;16.07;7.30;;;7.60;99.90;;;;;;4969881;28;20238;-84
2024/01/30 10:50:10;;;;;;;11.77;7.63;;;7.70;99.90;;;;;;4963314;28;20572;-85
2024/01/30 10:52:36;;;;;;;8.67;6.73;;;7.80;99.90;;;;;;4965525;28;20699;-85
2024/01/30 10:55:07;;;;;;;12.13;7.70;;;7.80;99.90;;;;;;4957332;28;20185;-86
2024/01/30 10:57:37;;;;;;;12.43;7.67;;;7.90;99.90;;;;;;4965328;28;20193;-84
2024/01/30 11:00:12;;;;;;;14.03;7.63;;;7.90;99.90;;;;;;4958692;28;20193;-83
2024/01/30 11:02:41;;;;;;;14.47;7.70;;;8.00;99.90;;;;;;4958774;28;20255;-88
2024/01/30 11:05:08;;;;;;;13.53;7.87;;;8.10;99.90;;;;;;4963385;28;20192;-84
2024/01/30 11:07:34;;;;;;;10.87;6.97;;;8.10;99.90;;;;;;4965426;28;20229;-85
2024/01/30 11:10:02;;;;;;;13.75;7.45;;;8.20;99.90;;;;;;4983181;28;20189;-86
2024/01/30 11:12:29;;;;;;;13.23;7.30;;;8.20;99.90;;;;;;4992845;28;20188;-85
2024/01/30 11:15:05;;;;;;;12.13;7.17;;;8.30;99.90;;;;;;4958811;28;20617;-85
2024/01/30 11:17:53;;;;;;;10.07;6.82;;;8.30;99.90;;;;;;4988760;28;20654;-86
2024/01/30 11:20:33;;;;;;;11.73;7.30;;;8.40;99.90;;;;;;4989269;28;20227;-86
2024/01/30 11:22:59;;;;;;;10.80;7.30;;;8.40;99.90;;;;;;4968663;28;20258;-84
2024/01/30 11:25:25;;;;;;;10.35;6.93;;;8.40;99.90;;;;;;4992787;28;20196;-85
2024/01/30 11:27:55;;;;;;;10.77;6.53;;;8.50;99.90;;;;;;4982479;28;20312;-85
2024/01/30 11:30:32;;;;;;;9.95;5.60;;;8.60;99.90;;;;;;4965178;28;20193;-87
2024/01/30 11:33:12;;;;;;;8.60;5.67;;;8.60;99.90;;;;;;4969171;28;20250;-86
2024/01/30 11:35:43;;;;;;;11.10;6.07;;;8.70;99.90;;;;;;4958829;28;20252;-85
2024/01/30 11:38:11;;;;;;;9.07;5.57;;;8.70;99.90;;;;;;4962775;28;20635;-85
2024/01/30 11:40:40;;;;;;;8.47;5.67;;;8.80;99.90;;;;;;4968193;28;20279;-85
2024/01/30 11:43:08;;;;;;;10.33;5.40;;;8.90;99.90;;;;;;4962949;28;20239;-85
2024/01/30 11:45:36;;;;;;;9.87;5.83;;;8.80;99.90;;;;;;4956692;28;20193;-84
2024/01/30 11:48:03;;;;;;;11.23;5.85;;;8.80;99.90;;;;;;4974479;28;20231;-83
2024/01/30 11:50:38;;;;;;;13.68;5.75;;;8.80;99.90;;;;;;4987254;28;20185;-87
2024/01/30 11:53:05;;;;;;;11.93;5.75;;;8.90;99.90;;;;;;4966839;28;20202;-89
2024/01/30 11:55:31;;;;;;;10.13;5.88;;;8.90;99.90;;;;;;4959511;28;20185;-89
2024/01/30 11:57:58;;;;;;;8.00;5.85;;;8.80;99.90;;;;;;4971583;28;20196;-85
2024/01/30 12:00:24;;;;;;;10.07;5.97;;;8.80;99.90;;;;;;4971415;28;20192;-85
2024/01/30 12:02:55;;;;;;;10.10;5.93;;;8.80;99.90;;;;;;4956362;28;20200;-85
2024/01/30 12:05:25;;;;;;;10.77;5.68;;;8.80;99.90;;;;;;4990033;28;20239;-85
2024/01/30 12:07:51;;;;;;;9.75;5.85;;;8.80;99.90;;;;;;4984125;28;20284;-87
2024/01/30 12:10:17;;;;;;;13.63;5.78;;;8.80;99.90;;;;;;4969076;28;20605;-88
2024/01/30 12:12:48;;;;;;;8.50;5.85;;;8.80;99.90;;;;;;4966932;28;20196;-85
2024/01/30 12:15:16;;;;;;;12.55;5.82;;;8.90;99.90;;;;;;4976065;28;20196;-86
2024/01/30 12:17:42;;;;;;;6.95;5.78;;;8.90;99.90;;;;;;4972780;28;20278;-85
2024/01/30 12:20:12;;;;;;;10.68;5.78;;;8.90;99.90;;;;;;4967971;28;20558;-90
2024/01/30 12:22:40;;;;;;;7.95;5.50;;;9.00;99.90;;;;;;4959969;28;20192;-85
2024/01/30 12:25:14;;;;;;;8.18;5.30;;;8.90;99.90;;;;;;4974704;28;20215;-87
2024/01/30 12:27:42;;;;;;;9.48;5.47;;;8.90;99.90;;;;;;4957684;28;20312;-85
2024/01/30 12:30:14;;;;;;;8.95;6.05;;;9.00;99.90;;;;;;4969549;28;20206;-88
2024/01/30 12:32:42;;;;;;;8.13;5.45;;;9.00;99.90;;;;;;4991746;28;20193;-88
2024/01/30 12:35:10;;;;;;;12.73;6.03;;;9.00;99.90;;;;;;4967887;28;20191;-89
2024/01/30 12:37:45;;;;;;;9.52;5.95;;;9.00;99.90;;;;;;4985937;28;20528;-88
2024/01/30 12:40:14;;;;;;;7.32;5.28;;;9.00;99.90;;;;;;4967606;28;20181;-90
2024/01/30 12:42:45;;;;;;;9.48;5.47;;;9.00;99.90;;;;;;4970649;28;20216;-85
2024/01/30 12:45:11;;;;;;;9.73;5.32;;;9.00;99.90;;;;;;4966622;28;20285;-88
2024/01/30 12:47:37;;;;;;;7.57;5.40;;;9.10;99.90;;;;;;4965376;28;20293;-87
2024/01/30 12:50:03;;;;;;;11.57;6.15;;;9.20;99.90;;;;;;4987814;28;20620;-85